createdAt,value
2023-05-01T00:01:43.738Z,7.80
2023-05-01T00:04:13.069Z,8.40
2023-05-01T00:06:42.245Z,10.00
2023-05-01T00:09:11.401Z,10.80
2023-05-01T00:11:40.426Z,9.60
2023-05-01T00:14:09.425Z,8.30
2023-05-01T00:16:38.615Z,10.30
2023-05-01T00:19:07.656Z,9.30
2023-05-01T00:21:36.720Z,9.70
2023-05-01T00:24:06.598Z,11.00
2023-05-01T00:26:35.610Z,12.00
2023-05-01T00:29:11.863Z,12.90
2023-05-01T00:31:41.682Z,13.60
2023-05-01T00:34:11.511Z,13.10
2023-05-01T00:36:41.056Z,12.60
2023-05-01T00:39:10.855Z,9.50
2023-05-01T00:41:39.943Z,9.10
2023-05-01T00:44:09.143Z,9.40
2023-05-01T00:46:38.586Z,9.50
2023-05-01T00:49:08.033Z,10.90
2023-05-01T00:51:37.440Z,15.40
2023-05-01T00:54:07.162Z,14.30
2023-05-01T00:56:36.971Z,14.40
2023-05-01T00:59:06.379Z,14.00
2023-05-01T01:01:36.002Z,14.00
2023-05-01T01:04:06.029Z,15.40
2023-05-01T01:06:45.856Z,12.70
2023-05-01T01:09:28.929Z,12.40
2023-05-01T01:12:16.298Z,13.20
2023-05-01T01:14:57.079Z,15.50
2023-05-01T01:17:34.880Z,17.30
2023-05-01T01:20:30.432Z,16.30
2023-05-01T01:23:26.454Z,14.80
2023-05-01T01:26:13.398Z,14.00
2023-05-01T01:29:15.531Z,13.40
2023-05-01T01:32:00.824Z,15.00
2023-05-01T01:34:36.149Z,13.70
2023-05-01T01:37:22.168Z,17.30
2023-05-01T01:40:02.460Z,18.30
2023-05-01T01:42:40.309Z,17.20
2023-05-01T01:45:18.821Z,13.70
2023-05-01T01:47:52.192Z,14.60
2023-05-01T01:50:25.642Z,12.50
2023-05-01T01:52:59.954Z,10.50
2023-05-01T01:55:32.922Z,12.30
2023-05-01T01:58:03.732Z,11.70
2023-05-01T02:00:35.061Z,15.50
2023-05-01T02:03:06.248Z,17.20
2023-05-01T02:05:37.516Z,17.30
2023-05-01T02:08:08.516Z,15.70
2023-05-01T02:10:39.878Z,14.30
2023-05-01T02:13:11.875Z,13.20
2023-05-01T02:15:42.058Z,14.70
2023-05-01T02:18:12.869Z,12.80
2023-05-01T02:20:43.808Z,13.10
2023-05-01T02:23:14.285Z,16.00
2023-05-01T02:25:45.019Z,18.80
2023-05-01T02:28:18.413Z,17.60
2023-05-01T02:30:47.454Z,16.60
2023-05-01T02:33:16.776Z,14.60
2023-05-01T02:35:47.021Z,16.30
2023-05-01T02:38:18.150Z,16.10
2023-05-01T02:40:55.587Z,14.50
2023-05-01T02:43:28.419Z,17.70
2023-05-01T02:46:01.236Z,19.20
2023-05-01T02:48:33.167Z,17.70
2023-05-01T02:51:04.052Z,16.10
2023-05-01T02:53:34.478Z,15.90
2023-05-01T02:56:08.961Z,12.50
2023-05-01T02:58:38.705Z,8.30
2023-05-01T03:01:07.803Z,9.50
2023-05-01T03:03:37.457Z,11.40
2023-05-01T03:06:06.901Z,11.00
2023-05-01T03:08:36.792Z,10.00
2023-05-01T03:11:08.288Z,15.20
2023-05-01T03:13:37.409Z,18.30
2023-05-01T03:16:36.545Z,16.00
2023-05-01T03:19:06.119Z,14.30
2023-05-01T03:21:36.454Z,13.00
2023-05-01T03:24:07.246Z,10.80
2023-05-01T03:26:36.262Z,12.10
2023-05-01T03:29:05.281Z,12.00
2023-05-01T03:31:34.910Z,8.20
2023-05-01T03:34:04.002Z,8.30
2023-05-01T03:36:33.673Z,9.50
2023-05-01T03:39:04.217Z,7.60
2023-05-01T03:42:11.606Z,8.20
2023-05-01T03:44:44.197Z,6.70
2023-05-01T03:47:13.366Z,6.60
2023-05-01T03:49:44.316Z,6.30
2023-05-01T03:52:14.065Z,8.20
2023-05-01T03:54:44.058Z,8.50
2023-05-01T03:57:26.349Z,9.00
2023-05-01T03:59:55.620Z,8.70
2023-05-01T04:02:25.267Z,8.80
2023-05-01T04:04:54.377Z,9.40
2023-05-01T04:07:23.915Z,8.80
2023-05-01T04:09:53.324Z,14.00
2023-05-01T04:12:22.681Z,12.90
2023-05-01T04:14:51.681Z,11.80
2023-05-01T04:17:21.508Z,11.90
2023-05-01T04:19:50.561Z,12.00
2023-05-01T04:22:19.590Z,12.00
2023-05-01T04:24:48.692Z,9.60
2023-05-01T04:27:19.017Z,10.80
2023-05-01T04:29:48.041Z,8.40
2023-05-01T04:32:17.501Z,8.80
2023-05-01T04:34:46.483Z,10.20
2023-05-01T04:37:17.317Z,8.20
2023-05-01T04:39:46.356Z,7.30
2023-05-01T04:42:15.417Z,8.10
2023-05-01T04:44:46.592Z,9.80
2023-05-01T04:47:15.590Z,8.10
2023-05-01T04:49:44.565Z,7.00
2023-05-01T04:52:13.558Z,8.10
2023-05-01T04:54:52.436Z,7.50
2023-05-01T04:57:25.512Z,7.70
2023-05-01T05:00:07.492Z,9.30
2023-05-01T05:02:38.390Z,6.50
2023-05-01T05:05:10.221Z,9.10
2023-05-01T05:07:39.314Z,7.80
2023-05-01T05:10:27.908Z,8.20
2023-05-01T05:13:10.612Z,9.10
2023-05-01T05:15:40.327Z,7.30
2023-05-01T05:18:11.020Z,8.10
2023-05-01T05:20:40.535Z,8.70
2023-05-01T05:23:09.731Z,8.20
2023-05-01T05:25:38.799Z,7.10
2023-05-01T05:28:08.168Z,8.30
2023-05-01T05:30:37.782Z,9.10
2023-05-01T05:33:09.077Z,8.70
2023-05-01T05:35:38.428Z,8.90
2023-05-01T05:38:07.414Z,9.40
2023-05-01T05:40:38.221Z,8.90
2023-05-01T05:43:08.057Z,9.40
2023-05-01T05:45:37.362Z,8.60
2023-05-01T05:48:07.202Z,8.60
2023-05-01T05:50:40.438Z,7.80
2023-05-01T05:53:09.785Z,8.90
2023-05-01T05:55:39.170Z,9.20
2023-05-01T05:58:08.671Z,9.20
2023-05-01T06:00:38.321Z,6.30
2023-05-01T06:03:08.084Z,8.50
2023-05-01T06:05:37.608Z,9.10
2023-05-01T06:08:06.975Z,8.90
2023-05-01T06:10:36.516Z,8.30
2023-05-01T06:13:13.661Z,8.00
2023-05-01T06:15:45.489Z,8.70
2023-05-01T06:18:15.113Z,7.80
2023-05-01T06:20:44.337Z,7.90
2023-05-01T06:23:13.315Z,7.80
2023-05-01T06:25:52.110Z,7.60
2023-05-01T06:28:21.889Z,8.20
2023-05-01T06:30:50.966Z,8.70
2023-05-01T06:33:21.220Z,8.30
2023-05-01T06:35:59.151Z,8.50
2023-05-01T06:38:28.444Z,7.80
2023-05-01T06:40:57.507Z,8.10
2023-05-01T06:43:29.975Z,8.10
2023-05-01T06:45:59.485Z,8.20
2023-05-01T06:48:28.525Z,7.40
2023-05-01T06:50:57.786Z,7.20
2023-05-01T06:53:30.422Z,8.30
2023-05-01T06:55:59.470Z,8.00
2023-05-01T06:58:28.863Z,8.50
2023-05-01T07:00:58.410Z,8.30
2023-05-01T07:03:27.678Z,7.30
2023-05-01T07:05:57.044Z,7.60
2023-05-01T07:08:27.473Z,7.40
2023-05-01T07:10:56.596Z,7.50
2023-05-01T07:13:27.023Z,7.80
2023-05-01T07:15:59.191Z,6.60
2023-05-01T07:18:28.424Z,7.00
2023-05-01T07:20:57.407Z,6.20
2023-05-01T07:23:26.677Z,6.20
2023-05-01T07:25:56.830Z,7.80
2023-05-01T07:28:25.846Z,6.80
2023-05-01T07:30:54.947Z,7.10
2023-05-01T07:33:25.894Z,6.40
2023-05-01T08:23:43.343Z,6.20
2023-05-01T08:26:16.957Z,5.70
2023-05-01T08:28:51.305Z,7.00
2023-05-01T08:31:25.516Z,5.90
2023-05-01T08:33:58.765Z,5.20
2023-05-01T08:36:32.905Z,5.00
2023-05-01T08:39:06.498Z,5.90
2023-05-01T08:41:41.939Z,5.10
2023-05-01T08:44:17.168Z,6.00
2023-05-01T08:46:57.985Z,5.40
2023-05-01T08:49:36.834Z,5.00
2023-05-01T08:52:12.079Z,5.40
2023-05-01T08:54:48.645Z,5.40
2023-05-01T08:57:24.107Z,4.80
2023-05-01T08:59:59.038Z,4.80
2023-05-01T09:02:35.870Z,4.70
2023-05-01T09:05:11.643Z,5.40
2023-05-01T09:07:46.119Z,5.00
2023-05-01T09:10:21.710Z,4.70
2023-05-01T09:13:01.602Z,5.20
2023-05-01T09:15:35.139Z,4.70
2023-05-01T09:18:11.635Z,4.30
2023-05-01T09:20:45.814Z,4.30
2023-05-01T09:23:20.457Z,4.00
2023-05-01T09:25:55.572Z,4.80
2023-05-01T09:28:46.541Z,4.30
2023-05-01T09:31:28.977Z,4.60
2023-05-01T09:34:04.621Z,4.00
2023-05-01T09:36:38.411Z,4.00
2023-05-01T09:39:23.376Z,3.60
2023-05-01T09:41:56.979Z,4.00
2023-05-01T09:44:30.140Z,4.20
2023-05-01T09:47:04.471Z,3.90
2023-05-01T09:49:51.100Z,4.10
2023-05-01T09:52:24.438Z,4.40
2023-05-01T09:55:16.622Z,4.50
2023-05-01T09:57:50.642Z,3.80
2023-05-01T10:00:25.279Z,4.10
2023-05-01T10:02:58.591Z,4.00
2023-05-01T10:05:45.706Z,4.10
2023-05-01T10:08:19.087Z,4.70
2023-05-01T10:11:06.324Z,3.80
2023-05-01T10:13:39.594Z,3.30
2023-05-01T10:16:32.858Z,3.70
2023-05-01T10:19:06.772Z,4.00
2023-05-01T10:21:40.108Z,3.70
2023-05-01T10:24:15.211Z,4.00
2023-05-01T10:26:52.101Z,3.40
2023-05-01T10:29:31.060Z,3.10
2023-05-01T10:32:06.826Z,3.60
2023-05-01T10:34:49.328Z,3.20
2023-05-01T10:37:33.333Z,3.70
2023-05-01T10:40:48.375Z,3.50
2023-05-01T10:43:28.646Z,4.10
2023-05-01T10:46:33.418Z,3.50
2023-05-01T10:49:07.165Z,3.70
2023-05-01T10:52:04.123Z,3.20
2023-05-01T10:54:37.794Z,3.10
2023-05-01T10:57:31.090Z,2.80
2023-05-01T11:00:14.077Z,3.10
2023-05-01T11:02:47.421Z,3.50
2023-05-01T11:05:41.089Z,3.00
2023-05-01T11:08:35.897Z,2.80
2023-05-01T11:11:50.307Z,2.40
2023-05-01T11:14:25.163Z,2.80
2023-05-01T11:16:58.352Z,3.00
2023-05-01T11:19:50.839Z,3.00
2023-05-01T11:22:25.914Z,2.90
2023-05-01T11:24:59.464Z,3.30
2023-05-01T11:27:33.510Z,3.20
2023-05-01T11:30:08.722Z,2.70
2023-05-01T11:32:46.487Z,3.20
2023-05-01T11:35:26.556Z,3.10
2023-05-01T11:38:00.132Z,3.20
2023-05-01T11:40:35.595Z,3.10
2023-05-01T11:43:10.232Z,2.50
2023-05-01T11:45:43.415Z,2.60
2023-05-01T11:48:19.752Z,3.10
2023-05-01T11:50:53.475Z,3.10
2023-05-01T11:53:26.867Z,3.30
2023-05-01T11:56:01.037Z,3.20
2023-05-01T11:58:38.017Z,3.10
2023-05-01T12:01:12.995Z,2.80
2023-05-01T12:03:47.379Z,3.00
2023-05-01T12:06:20.629Z,3.10
2023-05-01T12:08:55.135Z,3.10
2023-05-01T12:11:28.638Z,3.00
2023-05-01T12:14:02.229Z,3.10
2023-05-01T12:16:36.232Z,2.50
2023-05-01T12:19:12.197Z,2.80
2023-05-01T12:21:46.013Z,3.00
2023-05-01T12:24:21.334Z,2.60
2023-05-01T12:27:04.405Z,2.70
2023-05-01T12:29:47.295Z,2.30
2023-05-01T12:32:21.094Z,2.80
2023-05-01T12:34:55.612Z,2.50
2023-05-01T12:37:34.456Z,2.60
2023-05-01T12:40:15.582Z,2.50
2023-05-01T12:42:58.062Z,2.90
2023-05-01T12:45:31.881Z,2.90
2023-05-01T12:48:15.725Z,3.20
2023-05-01T12:50:54.971Z,3.20
2023-05-01T12:53:30.373Z,3.10
2023-05-01T12:56:03.549Z,3.40
2023-05-01T12:58:41.495Z,3.70
2023-05-01T13:01:24.496Z,3.70
2023-05-01T13:03:58.542Z,3.40
2023-05-01T13:06:37.278Z,3.90
2023-05-01T13:09:15.626Z,3.50
2023-05-01T13:12:02.630Z,3.10
2023-05-01T13:14:41.950Z,4.00
2023-05-01T13:17:25.593Z,3.60
2023-05-01T13:20:01.498Z,3.30
2023-05-01T13:22:37.319Z,3.10
2023-05-01T13:25:21.526Z,3.10
2023-05-01T13:27:55.359Z,3.00
2023-05-01T13:30:37.763Z,3.30
2023-05-01T13:33:14.118Z,3.10
2023-05-01T13:35:47.445Z,3.60
2023-05-01T13:38:23.484Z,2.90
2023-05-01T13:40:56.622Z,2.80
2023-05-01T13:43:29.749Z,3.00
2023-05-01T13:46:03.941Z,2.90
2023-05-01T13:48:37.226Z,3.20
2023-05-01T13:51:10.907Z,3.00
2023-05-01T13:53:45.145Z,3.40
2023-05-01T13:56:18.627Z,2.90
2023-05-01T13:58:51.819Z,3.10
2023-05-01T14:01:25.916Z,2.60
2023-05-01T14:04:00.457Z,3.30
2023-05-01T14:06:35.756Z,2.50
2023-05-01T14:09:09.050Z,2.80
2023-05-01T14:11:49.378Z,3.10
2023-05-01T14:14:22.557Z,2.70
2023-05-01T14:16:56.190Z,3.10
2023-05-01T14:19:29.511Z,3.10
2023-05-01T14:22:03.912Z,3.30
2023-05-01T14:24:41.675Z,3.30
2023-05-01T14:27:17.536Z,3.40
2023-05-01T14:29:51.687Z,2.30
2023-05-01T14:32:24.864Z,2.80
2023-05-01T14:34:59.730Z,2.60
2023-05-01T14:37:35.530Z,3.20
2023-05-01T14:40:15.651Z,3.00
2023-05-01T14:42:49.343Z,3.60
2023-05-01T14:45:22.851Z,2.80
2023-05-01T14:47:56.085Z,2.70
2023-05-01T14:50:29.271Z,2.70
2023-05-01T14:53:03.795Z,2.80
2023-05-01T14:55:37.252Z,2.90
2023-05-01T14:58:10.364Z,2.40
2023-05-01T15:00:43.627Z,2.70
2023-05-01T15:03:16.980Z,2.50
2023-05-01T15:05:50.171Z,2.60
2023-05-01T15:08:24.077Z,2.70
2023-05-01T15:10:57.282Z,2.40
2023-05-01T15:13:31.840Z,2.20
2023-05-01T15:16:05.705Z,2.50
2023-05-01T15:18:38.854Z,2.50
2023-05-01T15:21:12.006Z,2.20
2023-05-01T15:23:46.153Z,2.40
2023-05-01T15:26:19.305Z,2.30
2023-05-01T15:28:52.462Z,2.50
2023-05-01T15:31:25.696Z,2.30
2023-05-01T15:33:58.853Z,2.20
2023-05-01T15:36:32.760Z,1.80
2023-05-01T15:39:11.635Z,1.90
2023-05-01T15:41:44.995Z,1.90
2023-05-01T15:44:18.198Z,1.90
2023-05-01T15:46:53.074Z,1.90
2023-05-01T15:49:26.291Z,2.40
2023-05-01T15:51:59.475Z,2.10
2023-05-01T15:54:32.677Z,2.10
2023-05-01T15:57:07.658Z,2.10
2023-05-01T15:59:42.947Z,2.20
2023-05-01T16:02:16.077Z,2.30
2023-05-01T16:04:52.740Z,2.30
2023-05-01T16:07:27.244Z,2.20
2023-05-01T16:10:01.681Z,2.50
2023-05-01T16:12:35.234Z,2.70
2023-05-01T16:15:11.228Z,2.50
2023-05-01T16:17:47.860Z,2.10
2023-05-01T16:20:21.848Z,2.30
2023-05-01T16:22:54.968Z,2.70
2023-05-01T16:25:28.087Z,2.60
2023-05-01T16:28:01.242Z,3.00
2023-05-01T16:30:34.340Z,2.20
2023-05-01T16:33:19.967Z,2.40
2023-05-01T16:35:53.389Z,2.70
2023-05-01T16:38:27.520Z,2.60
2023-05-01T16:41:00.657Z,2.80
2023-05-01T16:43:33.834Z,2.90
2023-05-01T16:46:07.147Z,2.80
2023-05-01T16:48:41.800Z,3.30
2023-05-01T16:51:15.102Z,2.80
2023-05-01T16:53:48.902Z,3.30
2023-05-01T16:56:23.247Z,3.10
2023-05-01T16:58:56.419Z,3.10
2023-05-01T17:01:29.611Z,3.20
2023-05-01T17:04:02.838Z,2.90
2023-05-01T17:06:36.179Z,3.30
2023-05-01T17:09:09.454Z,3.50
2023-05-01T17:11:43.139Z,3.70
2023-05-01T17:14:17.320Z,3.00
2023-05-01T17:16:50.649Z,3.10
2023-05-01T17:19:23.933Z,2.50
2023-05-01T17:21:58.211Z,2.30
2023-05-01T17:24:31.785Z,2.80
2023-05-01T17:27:05.061Z,2.80
2023-05-01T17:30:05.573Z,3.00
2023-05-01T17:32:38.788Z,2.90
2023-05-01T17:35:12.736Z,3.20
2023-05-01T17:37:45.955Z,3.10
2023-05-01T17:40:19.156Z,3.10
2023-05-01T17:42:52.277Z,2.80
2023-05-01T17:45:25.554Z,2.90
2023-05-01T17:47:59.043Z,3.30
2023-05-01T17:50:32.187Z,3.20
2023-05-01T17:53:05.322Z,3.30
2023-05-01T17:55:39.078Z,3.90
2023-05-01T17:58:12.862Z,3.90
2023-05-01T18:00:46.519Z,3.50
2023-05-01T18:03:19.728Z,3.50
2023-05-01T18:05:52.961Z,3.80
2023-05-01T18:08:26.130Z,3.40
2023-05-01T18:10:59.354Z,4.50
2023-05-01T18:13:38.027Z,3.30
2023-05-01T18:16:11.861Z,3.90
2023-05-01T18:18:45.602Z,4.00
2023-05-01T18:21:18.772Z,3.80
2023-05-01T18:23:52.018Z,4.90
2023-05-01T18:26:27.633Z,4.50
2023-05-01T18:29:00.819Z,5.10
2023-05-01T18:31:35.902Z,4.50
2023-05-01T18:34:10.224Z,5.30
2023-05-01T18:36:43.285Z,5.60
2023-05-01T18:39:16.579Z,5.10
2023-05-01T18:41:49.806Z,5.30
2023-05-01T18:44:23.158Z,6.30
2023-05-01T18:46:56.292Z,5.40
2023-05-01T18:49:29.496Z,5.80
2023-05-01T18:52:03.311Z,6.20
2023-05-01T18:54:36.635Z,6.30
2023-05-01T18:57:09.749Z,5.80
2023-05-01T18:59:44.689Z,5.50
2023-05-01T19:02:18.074Z,5.80
2023-05-01T19:04:57.422Z,6.20
2023-05-01T19:07:31.416Z,5.90
2023-05-01T19:10:05.264Z,5.40
2023-05-01T19:12:39.324Z,5.30
2023-05-01T19:15:14.413Z,5.60
2023-05-01T19:17:47.569Z,5.50
2023-05-01T19:20:20.967Z,4.40
2023-05-01T19:22:54.055Z,5.80
2023-05-01T19:25:27.629Z,6.30
2023-05-01T19:28:02.039Z,5.50
2023-05-01T19:30:35.249Z,5.80
2023-05-01T19:33:08.463Z,5.40
2023-05-01T19:35:41.659Z,5.80
2023-05-01T19:38:14.817Z,6.30
2023-05-01T19:40:47.887Z,6.50
2023-05-01T19:43:21.017Z,5.80
2023-05-01T19:45:54.529Z,5.70
2023-05-01T19:48:27.793Z,5.90
2023-05-01T19:51:00.903Z,5.60
2023-05-01T19:53:34.032Z,5.90
2023-05-01T19:56:07.432Z,6.70
2023-05-01T19:58:40.887Z,6.60
2023-05-01T20:01:14.406Z,6.40
2023-05-01T20:03:47.684Z,6.50
2023-05-01T20:06:20.908Z,6.10
2023-05-01T20:08:54.065Z,5.80
2023-05-01T20:11:27.136Z,5.90
2023-05-01T20:14:00.799Z,6.50
2023-05-01T20:16:35.768Z,5.90
2023-05-01T20:19:09.944Z,6.40
2023-05-01T20:21:43.075Z,5.50
2023-05-01T20:24:16.124Z,6.00
2023-05-01T20:26:50.214Z,6.00
2023-05-01T20:29:23.312Z,6.60
2023-05-01T20:31:56.595Z,6.70
2023-05-01T20:34:29.820Z,6.20
2023-05-01T20:37:02.993Z,5.70
2023-05-01T20:39:36.128Z,6.30
2023-05-01T20:42:09.355Z,6.60
2023-05-01T20:44:42.772Z,6.60
2023-05-01T20:47:16.219Z,6.30
2023-05-01T20:49:49.374Z,6.30
2023-05-01T20:52:22.442Z,6.00
2023-05-01T20:54:55.613Z,6.20
2023-05-01T20:57:28.747Z,6.30
2023-05-01T21:00:02.065Z,6.60
2023-05-01T21:02:37.429Z,5.60
2023-05-01T21:05:13.904Z,6.10
2023-05-01T21:07:48.035Z,5.50
2023-05-01T21:10:21.178Z,5.10
2023-05-01T21:12:57.846Z,5.70
2023-05-01T21:15:31.984Z,5.80
2023-05-01T21:18:05.609Z,5.90
2023-05-01T21:20:40.075Z,5.50
2023-05-01T21:23:13.819Z,4.90
2023-05-01T21:25:47.111Z,5.50
2023-05-01T21:28:20.221Z,5.80
2023-05-01T21:30:57.550Z,5.80
2023-05-01T21:33:30.964Z,6.00
2023-05-01T21:36:04.530Z,5.70
2023-05-01T21:38:38.566Z,6.30
2023-05-01T21:41:15.308Z,5.10
2023-05-01T21:43:48.761Z,5.50
2023-05-01T21:46:23.447Z,6.20
2023-05-01T21:48:56.689Z,5.90
2023-05-01T21:51:32.324Z,5.60
2023-05-01T21:54:06.844Z,5.30
2023-05-01T21:56:40.467Z,5.90
2023-05-01T21:59:14.215Z,5.70
2023-05-01T22:01:47.835Z,5.80
2023-05-01T22:04:22.137Z,6.20
2023-05-01T22:06:55.376Z,6.60
2023-05-01T22:09:28.764Z,6.20
2023-05-01T22:12:02.055Z,6.70
2023-05-01T22:14:46.784Z,6.60
2023-05-01T22:17:24.418Z,6.00
2023-05-01T22:19:57.986Z,6.30
2023-05-01T22:22:31.271Z,6.30
2023-05-01T22:25:04.927Z,5.80
2023-05-01T22:27:38.868Z,6.40
2023-05-01T22:30:14.056Z,5.80
2023-05-01T22:32:47.221Z,6.20
2023-05-01T22:35:20.509Z,5.80
2023-05-01T22:37:53.657Z,6.40
2023-05-01T22:40:26.927Z,5.90
2023-05-01T22:43:00.286Z,6.40
2023-05-01T22:45:33.365Z,5.80
2023-05-01T22:48:07.131Z,6.00
2023-05-01T22:50:42.736Z,6.00
2023-05-01T22:53:15.970Z,5.80
2023-05-01T22:55:49.089Z,5.60
2023-05-01T22:58:22.279Z,6.70
2023-05-01T23:00:55.698Z,6.40
2023-05-01T23:03:28.893Z,6.20
2023-05-01T23:06:02.185Z,7.10
2023-05-01T23:08:35.403Z,6.70
2023-05-01T23:11:11.127Z,6.00
2023-05-01T23:13:49.101Z,6.80
2023-05-01T23:16:22.217Z,6.50
2023-05-01T23:18:56.489Z,7.00
2023-05-01T23:21:29.625Z,7.40
2023-05-01T23:24:05.466Z,7.30
2023-05-01T23:26:43.384Z,7.00
2023-05-01T23:29:19.296Z,6.80
2023-05-01T23:31:52.447Z,7.20
2023-05-01T23:34:26.083Z,6.90
2023-05-01T23:36:59.106Z,6.50
2023-05-01T23:39:32.222Z,7.80
2023-05-01T23:42:05.395Z,7.50
2023-05-01T23:44:38.502Z,7.20
2023-05-01T23:47:11.809Z,7.70
2023-05-01T23:49:44.993Z,7.10
2023-05-01T23:52:18.282Z,6.30
2023-05-01T23:54:51.917Z,6.30
2023-05-01T23:57:25.370Z,7.10
2023-05-01T23:59:58.686Z,6.90
